Maribo, Denmark
Current Conditions -  °F | °C
As of 3:20 PM on Monday 26 Jan 2015 (Local Time) from EDHK Reporting Station
Light Rain Light Rain  
Wind Chill: 29°   Ceiling: 300
Heat Index: 37°   Visibility: 2mi
Dew Point: 37°   Wind: 13mph
Humidity: 100%   Direction: 220°SW
Pressure: 29.83"   Gusts: NA
Location:  54.78°N, 11.5°E
Report Text: EDHK 261420Z 22011KT 3200 -RADZ BR OVC003 03/03 Q1010
Loading
Personal Weather Stations






























Interactive Weather Map New forecast layout! Learn more

10-Day Weather Forecast

Advertisements
Track Severe Weather on mobile